sensor_id;sensor_type;location;lat;lon;timestamp;P1;durP1;ratioP1;P2;durP2;ratioP2
8399;SDS011;4237;47.030;15.396;2023-09-18T00:00:57;6.80;;;5.40;;
8399;SDS011;4237;47.030;15.396;2023-09-18T00:03:26;7.73;;;5.40;;
8399;SDS011;4237;47.030;15.396;2023-09-18T00:05:54;6.30;;;4.97;;
8399;SDS011;4237;47.030;15.396;2023-09-18T00:08:22;8.00;;;5.35;;
8399;SDS011;4237;47.030;15.396;2023-09-18T00:10:51;5.27;;;4.77;;
8399;SDS011;4237;47.030;15.396;2023-09-18T00:13:20;7.57;;;6.67;;
8399;SDS011;4237;47.030;15.396;2023-09-18T00:15:49;6.07;;;5.00;;
8399;SDS011;4237;47.030;15.396;2023-09-18T00:18:19;5.60;;;5.10;;
8399;SDS011;4237;47.030;15.396;2023-09-18T00:20:47;6.43;;;5.07;;
8399;SDS011;4237;47.030;15.396;2023-09-18T00:23:16;6.13;;;5.07;;
8399;SDS011;4237;47.030;15.396;2023-09-18T00:25:44;6.60;;;4.93;;
8399;SDS011;4237;47.030;15.396;2023-09-18T00:28:13;6.30;;;5.10;;
8399;SDS011;4237;47.030;15.396;2023-09-18T00:33:28;6.47;;;5.03;;
8399;SDS011;4237;47.030;15.396;2023-09-18T00:35:57;6.63;;;5.60;;
8399;SDS011;4237;47.030;15.396;2023-09-18T00:38:25;6.70;;;5.17;;
8399;SDS011;4237;47.030;15.396;2023-09-18T00:43:40;6.43;;;5.00;;
8399;SDS011;4237;47.030;15.396;2023-09-18T00:46:09;5.77;;;5.17;;
8399;SDS011;4237;47.030;15.396;2023-09-18T00:48:37;6.07;;;5.33;;
8399;SDS011;4237;47.030;15.396;2023-09-18T00:51:05;7.57;;;5.63;;
8399;SDS011;4237;47.030;15.396;2023-09-18T00:53:34;7.03;;;5.70;;
8399;SDS011;4237;47.030;15.396;2023-09-18T00:56:02;5.90;;;4.97;;
8399;SDS011;4237;47.030;15.396;2023-09-18T00:58:31;7.83;;;4.97;;
8399;SDS011;4237;47.030;15.396;2023-09-18T01:01:00;6.00;;;4.80;;
8399;SDS011;4237;47.030;15.396;2023-09-18T01:03:30;5.17;;;4.67;;
8399;SDS011;4237;47.030;15.396;2023-09-18T01:05:58;7.70;;;6.10;;
8399;SDS011;4237;47.030;15.396;2023-09-18T01:08:27;5.00;;;4.50;;
8399;SDS011;4237;47.030;15.396;2023-09-18T01:11:04;6.17;;;4.80;;
8399;SDS011;4237;47.030;15.396;2023-09-18T01:13:37;7.10;;;5.43;;
8399;SDS011;4237;47.030;15.396;2023-09-18T06:09:40;4.67;;;4.17;;
8399;SDS011;4237;47.030;15.396;2023-09-18T06:12:08;5.80;;;4.17;;
8399;SDS011;4237;47.030;15.396;2023-09-18T06:14:36;7.97;;;4.13;;
8399;SDS011;4237;47.030;15.396;2023-09-18T06:17:05;8.87;;;3.63;;
8399;SDS011;4237;47.030;15.396;2023-09-18T06:19:33;5.85;;;3.92;;
8399;SDS011;4237;47.030;15.396;2023-09-18T06:22:02;7.10;;;4.05;;
8399;SDS011;4237;47.030;15.396;2023-09-18T06:24:30;4.65;;;4.03;;
8399;SDS011;4237;47.030;15.396;2023-09-18T06:26:59;6.63;;;3.70;;
8399;SDS011;4237;47.030;15.396;2023-09-18T06:29:27;5.62;;;3.67;;
8399;SDS011;4237;47.030;15.396;2023-09-18T06:31:55;5.50;;;4.40;;
8399;SDS011;4237;47.030;15.396;2023-09-18T06:34:24;6.17;;;4.20;;
8399;SDS011;4237;47.030;15.396;2023-09-18T06:36:52;5.45;;;3.72;;
8399;SDS011;4237;47.030;15.396;2023-09-18T06:39:20;5.53;;;3.90;;
8399;SDS011;4237;47.030;15.396;2023-09-18T06:41:50;7.40;;;3.72;;
8399;SDS011;4237;47.030;15.396;2023-09-18T06:44:18;8.48;;;4.00;;
8399;SDS011;4237;47.030;15.396;2023-09-18T06:46:46;4.95;;;4.20;;
8399;SDS011;4237;47.030;15.396;2023-09-18T06:49:14;6.85;;;4.65;;
8399;SDS011;4237;47.030;15.396;2023-09-18T06:51:43;4.67;;;4.08;;
8399;SDS011;4237;47.030;15.396;2023-09-18T06:54:11;6.72;;;3.92;;
8399;SDS011;4237;47.030;15.396;2023-09-18T06:56:39;4.62;;;4.15;;
8399;SDS011;4237;47.030;15.396;2023-09-18T06:59:08;6.70;;;3.87;;
8399;SDS011;4237;47.030;15.396;2023-09-18T07:01:37;6.70;;;4.40;;
8399;SDS011;4237;47.030;15.396;2023-09-18T07:04:07;6.62;;;4.08;;
8399;SDS011;4237;47.030;15.396;2023-09-18T07:06:36;9.38;;;4.40;;
8399;SDS011;4237;47.030;15.396;2023-09-18T07:09:04;10.13;;;4.17;;
8399;SDS011;4237;47.030;15.396;2023-09-18T07:11:34;7.08;;;3.83;;
8399;SDS011;4237;47.030;15.396;2023-09-18T07:14:02;8.28;;;4.12;;
8399;SDS011;4237;47.030;15.396;2023-09-18T07:16:32;5.12;;;4.62;;
8399;SDS011;4237;47.030;15.396;2023-09-18T07:19:01;12.28;;;4.50;;
8399;SDS011;4237;47.030;15.396;2023-09-18T07:21:31;7.78;;;4.28;;
8399;SDS011;4237;47.030;15.396;2023-09-18T07:24:00;7.58;;;4.15;;
8399;SDS011;4237;47.030;15.396;2023-09-18T07:26:28;7.35;;;4.15;;
8399;SDS011;4237;47.030;15.396;2023-09-18T07:28:57;6.30;;;4.35;;
8399;SDS011;4237;47.030;15.396;2023-09-18T07:31:25;4.40;;;3.87;;
8399;SDS011;4237;47.030;15.396;2023-09-18T07:33:53;6.03;;;4.30;;
8399;SDS011;4237;47.030;15.396;2023-09-18T07:36:21;5.08;;;4.20;;
8399;SDS011;4237;47.030;15.396;2023-09-18T07:38:49;6.25;;;3.70;;
8399;SDS011;4237;47.030;15.396;2023-09-18T07:41:18;5.67;;;4.08;;
8399;SDS011;4237;47.030;15.396;2023-09-18T07:43:47;5.47;;;4.37;;
8399;SDS011;4237;47.030;15.396;2023-09-18T07:46:16;4.50;;;3.72;;
8399;SDS011;4237;47.030;15.396;2023-09-18T07:48:44;4.85;;;4.05;;
8399;SDS011;4237;47.030;15.396;2023-09-18T07:51:12;4.90;;;4.40;;
8399;SDS011;4237;47.030;15.396;2023-09-18T07:53:42;6.05;;;4.50;;
8399;SDS011;4237;47.030;15.396;2023-09-18T07:56:11;6.00;;;4.03;;
8399;SDS011;4237;47.030;15.396;2023-09-18T07:58:39;6.55;;;4.45;;
8399;SDS011;4237;47.030;15.396;2023-09-18T08:01:07;8.48;;;4.92;;
8399;SDS011;4237;47.030;15.396;2023-09-18T08:03:37;7.10;;;3.95;;
8399;SDS011;4237;47.030;15.396;2023-09-18T08:06:05;7.60;;;5.03;;
8399;SDS011;4237;47.030;15.396;2023-09-18T08:08:33;9.03;;;4.87;;
8399;SDS011;4237;47.030;15.396;2023-09-18T08:11:07;4.85;;;4.35;;
8399;SDS011;4237;47.030;15.396;2023-09-18T08:13:36;9.23;;;3.95;;
8399;SDS011;4237;47.030;15.396;2023-09-18T08:16:05;9.13;;;4.17;;
8399;SDS011;4237;47.030;15.396;2023-09-18T08:18:34;10.88;;;4.60;;
8399;SDS011;4237;47.030;15.396;2023-09-18T08:21:02;5.40;;;4.00;;
8399;SDS011;4237;47.030;15.396;2023-09-18T08:23:32;7.90;;;4.60;;
8399;SDS011;4237;47.030;15.396;2023-09-18T08:26:00;10.08;;;4.17;;
8399;SDS011;4237;47.030;15.396;2023-09-18T08:28:28;14.60;;;4.17;;
8399;SDS011;4237;47.030;15.396;2023-09-18T08:30:57;11.73;;;3.98;;
8399;SDS011;4237;47.030;15.396;2023-09-18T08:33:26;11.43;;;4.47;;
8399;SDS011;4237;47.030;15.396;2023-09-18T08:35:54;9.68;;;4.25;;
8399;SDS011;4237;47.030;15.396;2023-09-18T08:38:22;6.20;;;3.62;;
8399;SDS011;4237;47.030;15.396;2023-09-18T08:40:53;5.78;;;3.72;;
8399;SDS011;4237;47.030;15.396;2023-09-18T08:43:20;7.37;;;3.83;;
8399;SDS011;4237;47.030;15.396;2023-09-18T08:45:51;13.08;;;3.80;;
8399;SDS011;4237;47.030;15.396;2023-09-18T08:48:24;6.17;;;3.55;;
8399;SDS011;4237;47.030;15.396;2023-09-18T08:50:55;10.75;;;3.47;;
8399;SDS011;4237;47.030;15.396;2023-09-18T08:53:23;8.43;;;3.83;;
8399;SDS011;4237;47.030;15.396;2023-09-18T08:55:51;8.33;;;3.50;;
8399;SDS011;4237;47.030;15.396;2023-09-18T08:58:21;8.88;;;4.28;;
8399;SDS011;4237;47.030;15.396;2023-09-18T09:00:49;6.87;;;5.05;;
8399;SDS011;4237;47.030;15.396;2023-09-18T09:03:18;9.80;;;4.00;;
8399;SDS011;4237;47.030;15.396;2023-09-18T09:05:46;8.63;;;4.30;;
8399;SDS011;4237;47.030;15.396;2023-09-18T09:08:15;7.35;;;3.85;;
8399;SDS011;4237;47.030;15.396;2023-09-18T09:10:43;4.90;;;3.67;;
8399;SDS011;4237;47.030;15.396;2023-09-18T09:13:12;4.60;;;4.00;;
8399;SDS011;4237;47.030;15.396;2023-09-18T09:15:44;5.58;;;3.80;;
8399;SDS011;4237;47.030;15.396;2023-09-18T09:18:17;8.28;;;3.77;;
8399;SDS011;4237;47.030;15.396;2023-09-18T09:20:58;19.48;;;4.42;;
8399;SDS011;4237;47.030;15.396;2023-09-18T09:23:23;4.97;;;3.77;;
8399;SDS011;4237;47.030;15.396;2023-09-18T09:25:52;4.17;;;3.77;;
8399;SDS011;4237;47.030;15.396;2023-09-18T09:28:30;4.20;;;3.58;;
8399;SDS011;4237;47.030;15.396;2023-09-18T09:31:02;4.30;;;3.70;;
8399;SDS011;4237;47.030;15.396;2023-09-18T09:33:30;3.30;;;3.00;;
8399;SDS011;4237;47.030;15.396;2023-09-18T09:35:59;3.72;;;3.42;;
8399;SDS011;4237;47.030;15.396;2023-09-18T09:38:28;6.17;;;3.85;;
8399;SDS011;4237;47.030;15.396;2023-09-18T09:41:04;6.95;;;3.98;;
8399;SDS011;4237;47.030;15.396;2023-09-18T09:43:30;5.10;;;3.60;;
8399;SDS011;4237;47.030;15.396;2023-09-18T09:45:58;4.83;;;3.77;;
8399;SDS011;4237;47.030;15.396;2023-09-18T09:48:27;3.75;;;3.45;;
8399;SDS011;4237;47.030;15.396;2023-09-18T09:50:58;3.58;;;3.27;;
8399;SDS011;4237;47.030;15.396;2023-09-18T09:53:43;3.90;;;3.20;;
8399;SDS011;4237;47.030;15.396;2023-09-18T09:56:13;5.45;;;3.33;;
8399;SDS011;4237;47.030;15.396;2023-09-18T09:58:41;4.05;;;3.65;;
8399;SDS011;4237;47.030;15.396;2023-09-18T10:01:12;7.10;;;3.30;;
8399;SDS011;4237;47.030;15.396;2023-09-18T10:03:42;3.80;;;3.50;;
8399;SDS011;4237;47.030;15.396;2023-09-18T10:06:11;6.85;;;3.50;;
8399;SDS011;4237;47.030;15.396;2023-09-18T10:08:40;4.62;;;3.35;;
8399;SDS011;4237;47.030;15.396;2023-09-18T10:11:09;3.98;;;3.25;;
8399;SDS011;4237;47.030;15.396;2023-09-18T10:13:41;6.17;;;3.15;;
8399;SDS011;4237;47.030;15.396;2023-09-18T10:16:10;4.45;;;3.45;;
8399;SDS011;4237;47.030;15.396;2023-09-18T10:21:25;5.08;;;3.70;;
8399;SDS011;4237;47.030;15.396;2023-09-18T10:24:04;3.27;;;2.98;;
8399;SDS011;4237;47.030;15.396;2023-09-18T10:26:30;6.15;;;3.40;;
8399;SDS011;4237;47.030;15.396;2023-09-18T10:29:00;3.47;;;2.98;;
8399;SDS011;4237;47.030;15.396;2023-09-18T10:31:30;4.83;;;3.40;;
8399;SDS011;4237;47.030;15.396;2023-09-18T10:34:00;10.00;;;3.27;;
8399;SDS011;4237;47.030;15.396;2023-09-18T10:36:30;3.58;;;3.27;;
8399;SDS011;4237;47.030;15.396;2023-09-18T10:38:59;5.40;;;3.20;;
8399;SDS011;4237;47.030;15.396;2023-09-18T10:41:27;4.53;;;3.08;;
8399;SDS011;4237;47.030;15.396;2023-09-18T10:43:56;7.33;;;3.80;;
8399;SDS011;4237;47.030;15.396;2023-09-18T10:46:26;4.95;;;3.45;;
8399;SDS011;4237;47.030;15.396;2023-09-18T10:48:55;3.72;;;3.40;;
8399;SDS011;4237;47.030;15.396;2023-09-18T10:51:24;3.30;;;3.00;;
8399;SDS011;4237;47.030;15.396;2023-09-18T10:53:53;4.90;;;3.55;;
8399;SDS011;4237;47.030;15.396;2023-09-18T10:56:21;4.50;;;3.12;;
8399;SDS011;4237;47.030;15.396;2023-09-18T10:58:56;3.12;;;2.90;;
8399;SDS011;4237;47.030;15.396;2023-09-18T11:01:27;3.72;;;3.12;;
8399;SDS011;4237;47.030;15.396;2023-09-18T11:04:03;6.33;;;3.40;;
8399;SDS011;4237;47.030;15.396;2023-09-18T11:07:19;6.12;;;4.78;;
8399;SDS011;4237;47.030;15.396;2023-09-18T11:09:04;5.10;;;3.45;;
8399;SDS011;4237;47.030;15.396;2023-09-18T11:11:33;3.65;;;2.95;;
8399;SDS011;4237;47.030;15.396;2023-09-18T11:14:02;3.65;;;3.30;;
8399;SDS011;4237;47.030;15.396;2023-09-18T11:16:35;4.97;;;3.02;;
8399;SDS011;4237;47.030;15.396;2023-09-18T11:19:09;4.37;;;2.90;;
8399;SDS011;4237;47.030;15.396;2023-09-18T11:21:38;3.52;;;2.92;;
8399;SDS011;4237;47.030;15.396;2023-09-18T11:24:17;3.30;;;3.00;;
8399;SDS011;4237;47.030;15.396;2023-09-18T11:26:47;7.12;;;3.20;;
8399;SDS011;4237;47.030;15.396;2023-09-18T11:29:22;12.90;;;3.45;;
8399;SDS011;4237;47.030;15.396;2023-09-18T11:31:51;4.03;;;3.55;;
8399;SDS011;4237;47.030;15.396;2023-09-18T11:34:21;6.85;;;3.42;;
8399;SDS011;4237;47.030;15.396;2023-09-18T11:36:50;3.83;;;3.37;;
8399;SDS011;4237;47.030;15.396;2023-09-18T11:39:34;3.47;;;3.15;;
8399;SDS011;4237;47.030;15.396;2023-09-18T11:42:07;3.70;;;3.37;;
8399;SDS011;4237;47.030;15.396;2023-09-18T11:44:35;9.20;;;3.72;;
8399;SDS011;4237;47.030;15.396;2023-09-18T11:47:06;6.62;;;3.05;;
8399;SDS011;4237;47.030;15.396;2023-09-18T11:49:34;5.37;;;3.40;;
8399;SDS011;4237;47.030;15.396;2023-09-18T11:52:03;3.85;;;3.27;;
8399;SDS011;4237;47.030;15.396;2023-09-18T11:54:33;6.37;;;3.08;;
8399;SDS011;4237;47.030;15.396;2023-09-18T11:57:04;8.25;;;3.77;;
8399;SDS011;4237;47.030;15.396;2023-09-18T11:59:37;3.42;;;3.10;;
8399;SDS011;4237;47.030;15.396;2023-09-18T12:02:03;3.65;;;3.35;;
8399;SDS011;4237;47.030;15.396;2023-09-18T12:04:34;3.62;;;3.33;;
8399;SDS011;4237;47.030;15.396;2023-09-18T12:07:05;4.70;;;3.27;;
8399;SDS011;4237;47.030;15.396;2023-09-18T12:09:35;9.13;;;3.45;;
8399;SDS011;4237;47.030;15.396;2023-09-18T12:12:11;3.75;;;2.83;;
8399;SDS011;4237;47.030;15.396;2023-09-18T12:14:35;5.33;;;3.27;;
8399;SDS011;4237;47.030;15.396;2023-09-18T12:17:04;3.62;;;3.22;;
8399;SDS011;4237;47.030;15.396;2023-09-18T12:19:33;5.90;;;3.40;;
8399;SDS011;4237;47.030;15.396;2023-09-18T12:22:02;8.08;;;3.85;;
8399;SDS011;4237;47.030;15.396;2023-09-18T12:24:31;8.98;;;4.75;;
8399;SDS011;4237;47.030;15.396;2023-09-18T12:26:59;5.45;;;3.80;;
8399;SDS011;4237;47.030;15.396;2023-09-18T12:29:27;3.72;;;3.35;;
8399;SDS011;4237;47.030;15.396;2023-09-18T12:31:55;3.50;;;3.20;;
8399;SDS011;4237;47.030;15.396;2023-09-18T12:34:24;5.90;;;3.15;;
8399;SDS011;4237;47.030;15.396;2023-09-18T12:36:52;4.37;;;3.47;;
8399;SDS011;4237;47.030;15.396;2023-09-18T12:39:21;5.85;;;3.65;;
8399;SDS011;4237;47.030;15.396;2023-09-18T16:58:15;4.80;;;4.20;;
8399;SDS011;4237;47.030;15.396;2023-09-18T17:00:44;5.63;;;4.10;;
8399;SDS011;4237;47.030;15.396;2023-09-18T17:03:14;6.80;;;4.80;;
8399;SDS011;4237;47.030;15.396;2023-09-18T17:05:43;5.33;;;4.57;;
8399;SDS011;4237;47.030;15.396;2023-09-18T17:08:14;6.70;;;4.60;;
8399;SDS011;4237;47.030;15.396;2023-09-18T17:10:43;8.97;;;4.77;;
8399;SDS011;4237;47.030;15.396;2023-09-18T17:13:13;6.93;;;5.10;;
8399;SDS011;4237;47.030;15.396;2023-09-18T17:15:42;5.95;;;4.25;;
8399;SDS011;4237;47.030;15.396;2023-09-18T17:18:11;8.83;;;4.63;;
8399;SDS011;4237;47.030;15.396;2023-09-18T17:20:42;6.67;;;4.57;;
8399;SDS011;4237;47.030;15.396;2023-09-18T17:23:11;8.37;;;5.40;;
8399;SDS011;4237;47.030;15.396;2023-09-18T17:25:43;8.67;;;4.77;;
8399;SDS011;4237;47.030;15.396;2023-09-18T17:28:14;6.40;;;4.50;;
8399;SDS011;4237;47.030;15.396;2023-09-18T17:30:43;5.70;;;4.80;;
8399;SDS011;4237;47.030;15.396;2023-09-18T17:33:12;6.87;;;4.80;;
8399;SDS011;4237;47.030;15.396;2023-09-18T17:35:43;6.03;;;4.40;;
8399;SDS011;4237;47.030;15.396;2023-09-18T17:38:15;8.50;;;5.27;;
8399;SDS011;4237;47.030;15.396;2023-09-18T17:40:46;6.43;;;4.63;;
8399;SDS011;4237;47.030;15.396;2023-09-18T18:05:29;7.00;;;5.60;;
8399;SDS011;4237;47.030;15.396;2023-09-18T18:07:59;6.93;;;4.93;;
8399;SDS011;4237;47.030;15.396;2023-09-18T18:10:29;7.20;;;4.97;;
8399;SDS011;4237;47.030;15.396;2023-09-18T18:13:01;7.17;;;4.63;;
8399;SDS011;4237;47.030;15.396;2023-09-18T18:15:32;5.87;;;4.37;;
8399;SDS011;4237;47.030;15.396;2023-09-18T18:18:01;6.30;;;4.53;;
8399;SDS011;4237;47.030;15.396;2023-09-18T18:20:31;5.40;;;4.60;;
8399;SDS011;4237;47.030;15.396;2023-09-18T18:23:01;6.10;;;5.07;;
8399;SDS011;4237;47.030;15.396;2023-09-18T18:25:32;7.90;;;4.93;;
8399;SDS011;4237;47.030;15.396;2023-09-18T18:28:06;6.87;;;4.63;;
8399;SDS011;4237;47.030;15.396;2023-09-18T18:30:35;5.60;;;4.23;;
8399;SDS011;4237;47.030;15.396;2023-09-18T18:33:06;9.03;;;4.83;;
8399;SDS011;4237;47.030;15.396;2023-09-18T18:35:38;9.00;;;5.00;;
8399;SDS011;4237;47.030;15.396;2023-09-18T18:38:07;9.17;;;5.30;;
8399;SDS011;4237;47.030;15.396;2023-09-18T18:40:38;7.47;;;4.73;;
8399;SDS011;4237;47.030;15.396;2023-09-18T18:43:11;6.30;;;5.03;;
8399;SDS011;4237;47.030;15.396;2023-09-18T18:45:44;9.50;;;5.07;;
8399;SDS011;4237;47.030;15.396;2023-09-18T18:48:14;7.70;;;5.40;;
8399;SDS011;4237;47.030;15.396;2023-09-18T18:50:45;10.90;;;5.10;;
8399;SDS011;4237;47.030;15.396;2023-09-18T18:53:17;7.97;;;5.43;;
8399;SDS011;4237;47.030;15.396;2023-09-18T18:56:04;7.33;;;4.70;;
8399;SDS011;4237;47.030;15.396;2023-09-18T18:58:34;7.13;;;5.20;;
8399;SDS011;4237;47.030;15.396;2023-09-18T19:01:03;5.27;;;4.60;;
8399;SDS011;4237;47.030;15.396;2023-09-18T19:03:33;7.37;;;4.80;;
8399;SDS011;4237;47.030;15.396;2023-09-18T19:06:04;10.50;;;5.17;;
8399;SDS011;4237;47.030;15.396;2023-09-18T19:08:35;9.23;;;5.13;;
8399;SDS011;4237;47.030;15.396;2023-09-18T21:09:55;11.70;;;6.90;;
8399;SDS011;4237;47.030;15.396;2023-09-18T21:12:24;10.60;;;7.27;;
8399;SDS011;4237;47.030;15.396;2023-09-18T21:14:53;9.37;;;7.50;;
8399;SDS011;4237;47.030;15.396;2023-09-18T21:17:21;10.27;;;6.30;;
8399;SDS011;4237;47.030;15.396;2023-09-18T21:19:49;16.53;;;6.93;;
8399;SDS011;4237;47.030;15.396;2023-09-18T21:22:17;10.33;;;6.63;;
8399;SDS011;4237;47.030;15.396;2023-09-18T21:24:46;10.97;;;6.43;;
8399;SDS011;4237;47.030;15.396;2023-09-18T21:27:15;9.97;;;6.90;;
8399;SDS011;4237;47.030;15.396;2023-09-18T21:29:44;9.50;;;5.57;;
8399;SDS011;4237;47.030;15.396;2023-09-18T21:32:12;8.33;;;6.57;;
8399;SDS011;4237;47.030;15.396;2023-09-18T21:34:40;10.27;;;5.93;;
8399;SDS011;4237;47.030;15.396;2023-09-18T21:37:08;11.77;;;5.70;;
8399;SDS011;4237;47.030;15.396;2023-09-18T21:39:36;11.03;;;5.77;;
8399;SDS011;4237;47.030;15.396;2023-09-18T21:42:05;9.90;;;5.90;;
8399;SDS011;4237;47.030;15.396;2023-09-18T21:44:33;13.27;;;6.53;;
8399;SDS011;4237;47.030;15.396;2023-09-18T21:47:01;8.97;;;6.13;;
8399;SDS011;4237;47.030;15.396;2023-09-18T21:49:30;11.37;;;5.63;;
8399;SDS011;4237;47.030;15.396;2023-09-18T21:51:58;10.10;;;6.47;;
8399;SDS011;4237;47.030;15.396;2023-09-18T21:54:26;12.73;;;5.97;;
8399;SDS011;4237;47.030;15.396;2023-09-18T21:56:54;12.17;;;6.17;;
8399;SDS011;4237;47.030;15.396;2023-09-18T21:59:22;9.60;;;6.83;;
8399;SDS011;4237;47.030;15.396;2023-09-18T22:01:50;8.10;;;5.93;;
8399;SDS011;4237;47.030;15.396;2023-09-18T22:04:20;9.93;;;6.57;;
8399;SDS011;4237;47.030;15.396;2023-09-18T22:06:52;8.10;;;5.67;;
8399;SDS011;4237;47.030;15.396;2023-09-18T22:09:20;7.60;;;5.97;;
8399;SDS011;4237;47.030;15.396;2023-09-18T22:11:50;10.67;;;6.57;;
8399;SDS011;4237;47.030;15.396;2023-09-18T22:14:18;8.70;;;5.73;;
8399;SDS011;4237;47.030;15.396;2023-09-18T22:16:47;10.30;;;6.50;;
8399;SDS011;4237;47.030;15.396;2023-09-18T22:19:15;11.10;;;6.87;;
8399;SDS011;4237;47.030;15.396;2023-09-18T22:21:43;12.03;;;7.13;;
8399;SDS011;4237;47.030;15.396;2023-09-18T22:24:11;8.20;;;6.30;;
8399;SDS011;4237;47.030;15.396;2023-09-18T22:26:39;8.43;;;6.40;;
8399;SDS011;4237;47.030;15.396;2023-09-18T22:29:08;8.53;;;6.60;;
8399;SDS011;4237;47.030;15.396;2023-09-18T22:31:38;11.80;;;6.73;;
8399;SDS011;4237;47.030;15.396;2023-09-18T22:34:06;10.83;;;6.93;;
8399;SDS011;4237;47.030;15.396;2023-09-18T22:36:38;7.73;;;6.40;;
8399;SDS011;4237;47.030;15.396;2023-09-18T22:55:08;12.30;;;6.27;;
8399;SDS011;4237;47.030;15.396;2023-09-18T22:57:38;10.87;;;5.50;;
8399;SDS011;4237;47.030;15.396;2023-09-18T23:00:07;15.93;;;5.93;;
8399;SDS011;4237;47.030;15.396;2023-09-18T23:02:36;7.40;;;5.17;;
8399;SDS011;4237;47.030;15.396;2023-09-18T23:05:07;12.07;;;6.20;;
8399;SDS011;4237;47.030;15.396;2023-09-18T23:07:35;10.50;;;5.60;;
8399;SDS011;4237;47.030;15.396;2023-09-18T23:10:04;8.87;;;5.43;;
8399;SDS011;4237;47.030;15.396;2023-09-18T23:12:35;16.40;;;5.57;;
8399;SDS011;4237;47.030;15.396;2023-09-18T23:15:08;8.33;;;5.60;;
8399;SDS011;4237;47.030;15.396;2023-09-18T23:17:42;12.00;;;6.30;;
8399;SDS011;4237;47.030;15.396;2023-09-18T23:20:16;10.03;;;4.80;;
8399;SDS011;4237;47.030;15.396;2023-09-18T23:22:42;14.37;;;5.30;;
8399;SDS011;4237;47.030;15.396;2023-09-18T23:25:11;9.67;;;4.20;;
8399;SDS011;4237;47.030;15.396;2023-09-18T23:27:42;9.03;;;3.90;;
8399;SDS011;4237;47.030;15.396;2023-09-18T23:30:12;14.10;;;4.63;;
8399;SDS011;4237;47.030;15.396;2023-09-18T23:32:52;13.27;;;4.37;;
8399;SDS011;4237;47.030;15.396;2023-09-18T23:35:21;8.27;;;3.97;;
8399;SDS011;4237;47.030;15.396;2023-09-18T23:37:55;9.40;;;4.63;;
8399;SDS011;4237;47.030;15.396;2023-09-18T23:40:26;9.30;;;3.97;;
8399;SDS011;4237;47.030;15.396;2023-09-18T23:42:56;6.97;;;3.80;;
8399;SDS011;4237;47.030;15.396;2023-09-18T23:45:24;11.27;;;4.20;;
8399;SDS011;4237;47.030;15.396;2023-09-18T23:47:54;6.53;;;3.27;;
8399;SDS011;4237;47.030;15.396;2023-09-18T23:50:22;7.23;;;3.70;;
8399;SDS011;4237;47.030;15.396;2023-09-18T23:52:54;6.47;;;4.10;;
8399;SDS011;4237;47.030;15.396;2023-09-18T23:55:24;8.00;;;3.60;;
8399;SDS011;4237;47.030;15.396;2023-09-18T23:57:53;8.27;;;3.10;;
